Time;durP1;ratioP1;P1;durP2;ratioP2;P2;SDS_P1;SDS_P2;PMS_P1;PMS_P2;Temp;Humidity;BMP_temperature;BMP_pressure;BME280_temperature;BME280_humidity;BME280_pressure;Samples;Min_cycle;Max_cycle;Signal;HPM_P1;HPM_P2
2022/12/04 00:01:19;;;;;;;30.83;16.38;;;;;;;0.42;100.00;102195.81;5010461;28;20556;-75
2022/12/04 00:03:46;;;;;;;30.05;16.42;;;;;;;0.41;100.00;102192.31;5040278;28;20049;-76
2022/12/04 00:06:17;;;;;;;33.55;16.55;;;;;;;0.43;100.00;102195.03;5034415;28;20048;-76
2022/12/04 00:08:46;;;;;;;32.65;16.67;;;;;;;0.44;100.00;102197.72;5009197;28;20045;-75
2022/12/04 00:11:17;;;;;;;28.35;16.08;;;;;;;0.43;100.00;102198.50;5039010;28;20048;-75
2022/12/04 00:13:45;;;;;;;33.13;17.20;;;;;;;0.40;100.00;102190.53;5046552;28;20045;-75
2022/12/04 00:16:17;;;;;;;30.70;17.05;;;;;;;0.38;100.00;102184.38;5038092;28;20057;-75
2022/12/04 00:18:44;;;;;;;;;;;;;;;0.37;100.00;102187.75;5030826;28;20041;-75
2022/12/04 00:21:13;;;;;;;30.15;17.00;;;;;;;0.34;100.00;102185.84;5038034;28;19931;-74
2022/12/04 00:23:42;;;;;;;34.08;16.90;;;;;;;0.31;100.00;102185.63;5015716;28;20487;-75
2022/12/04 00:26:12;;;;;;;29.60;17.13;;;;;;;0.29;100.00;102186.34;5040183;28;20049;-75
2022/12/04 00:28:40;;;;;;;30.38;16.60;;;;;;;0.28;100.00;102194.91;5045913;28;20052;-75
2022/12/04 00:31:11;;;;;;;31.08;17.75;;;;;;;0.27;100.00;102183.66;5042062;28;20059;-75
2022/12/04 00:33:39;;;;;;;29.92;17.40;;;;;;;0.25;100.00;102187.84;5033417;28;20048;-76
2022/12/04 00:36:11;;;;;;;28.80;15.50;;;;;;;0.23;100.00;102183.31;5043141;28;20059;-76
2022/12/04 00:38:39;;;;;;;33.63;15.80;;;;;;;0.17;100.00;102189.91;5043726;28;20045;-76
2022/12/04 00:41:15;;;;;;;30.50;17.30;;;;;;;0.17;100.00;102199.38;5012132;28;20041;-76
2022/12/04 00:43:44;;;;;;;31.42;15.85;;;;;;;0.15;100.00;102188.00;5043317;28;20416;-75
2022/12/04 00:46:12;;;;;;;38.63;18.33;;;;;;;0.16;100.00;102184.63;5043408;28;20505;-75
2022/12/04 00:48:40;;;;;;;35.05;17.58;;;;;;;0.14;100.00;102187.09;5038026;28;20509;-74
2022/12/04 00:51:11;;;;;;;33.72;18.95;;;;;;;0.15;100.00;102199.28;5043125;28;20490;-75
2022/12/04 00:53:39;;;;;;;35.83;17.73;;;;;;;0.17;100.00;102189.00;5044020;28;20739;-76
2022/12/04 00:56:09;;;;;;;35.80;18.02;;;;;;;0.18;100.00;102189.09;5013943;28;20059;-75
2022/12/04 00:58:37;;;;;;;33.70;17.55;;;;;;;0.19;100.00;102185.72;5044454;28;20108;-74
2022/12/04 01:01:08;;;;;;;32.55;17.52;;;;;;;0.18;100.00;102183.91;5045684;28;20045;-75
2022/12/04 01:03:36;;;;;;;30.83;16.50;;;;;;;0.14;100.00;102183.63;5036421;28;20071;-74
2022/12/04 01:06:04;;;;;;;37.28;17.83;;;;;;;0.14;100.00;102181.03;5044412;28;20413;-75
2022/12/04 01:08:32;;;;;;;33.13;17.05;;;;;;;0.15;100.00;102182.81;5042078;28;20041;-75
2022/12/04 01:11:03;;;;;;;37.33;17.60;;;;;;;0.12;100.00;102178.34;5017640;28;20048;-75
2022/12/04 01:13:30;;;;;;;32.63;16.92;;;;;;;0.09;100.00;102185.00;5043402;28;20685;-75
2022/12/04 01:15:57;;;;;;;31.30;17.15;;;;;;;0.05;100.00;102176.13;5027078;28;20053;-75
2022/12/04 01:18:25;;;;;;;28.50;16.30;;;;;;;0.04;100.00;102176.94;5026820;28;20037;-76
2022/12/04 01:20:52;;;;;;;29.70;16.88;;;;;;;0.03;100.00;102182.00;5043133;28;20040;-75
2022/12/04 01:23:20;;;;;;;34.10;17.38;;;;;;;0.01;100.00;102191.38;5047706;28;20056;-75
2022/12/04 01:25:53;;;;;;;31.98;16.80;;;;;;;-0.01;100.00;102181.78;5018463;28;20056;-75
2022/12/04 01:28:21;;;;;;;33.08;17.52;;;;;;;-0.02;100.00;102182.59;5036809;28;20041;-75
2022/12/04 01:31:05;;;;;;;31.30;17.15;;;;;;;-0.03;100.00;102185.97;5047913;28;20382;-75
2022/12/04 01:33:33;;;;;;;32.33;17.77;;;;;;;-0.06;100.00;102172.84;5035930;28;20186;-75
2022/12/04 01:36:03;;;;;;;33.13;17.70;;;;;;;-0.06;100.00;102172.84;5044240;28;20802;-75
2022/12/04 01:38:30;;;;;;;36.35;18.67;;;;;;;-0.07;100.00;102176.19;5043819;28;20474;-75
2022/12/04 01:40:58;;;;;;;32.90;18.13;;;;;;;-0.07;100.00;102168.44;5031931;28;20045;-75
2022/12/04 01:43:27;;;;;;;31.83;16.92;;;;;;;-0.09;100.00;102172.63;5034511;28;20040;-75
2022/12/04 01:45:56;;;;;;;32.60;18.00;;;;;;;-0.08;100.00;102173.50;5048062;28;20083;-75
2022/12/04 01:48:30;;;;;;;31.48;18.08;;;;;;;-0.11;100.00;102168.13;5047798;28;20037;-75
2022/12/04 01:51:26;;;;;;;34.53;18.75;;;;;;;-0.13;100.00;102165.44;5019876;28;20167;-75
2022/12/04 01:53:58;;;;;;;35.40;19.20;;;;;;;-0.14;100.00;102160.13;5043109;28;20056;-76
2022/12/04 01:56:31;;;;;;;33.10;18.10;;;;;;;-0.16;100.00;102170.38;5046403;28;20824;-76
2022/12/04 01:59:01;;;;;;;33.65;18.20;;;;;;;-0.15;100.00;102161.84;5019382;28;20048;-76
2022/12/04 02:01:38;;;;;;;32.28;18.42;;;;;;;-0.15;100.00;102156.66;5046922;28;20143;-76
2022/12/04 02:04:06;;;;;;;33.80;17.23;;;;;;;-0.16;100.00;102170.38;5037484;28;20044;-74
2022/12/04 02:06:33;;;;;;;31.70;17.67;;;;;;;-0.18;100.00;102164.22;5049268;28;20049;-74
2022/12/04 02:09:01;;;;;;;37.53;19.83;;;;;;;-0.19;100.00;102159.81;5046935;28;20052;-76
2022/12/04 02:12:02;;;;;;;29.00;16.27;;;;;;;-0.20;100.00;102168.41;5048073;28;20053;-76
2022/12/04 02:14:38;;;;;;;34.15;18.83;;;;;;;-0.22;100.00;102162.22;5057829;28;20049;-76
2022/12/04 02:17:27;;;;;;;33.90;18.80;;;;;;;-0.22;100.00;102157.91;5044050;28;20053;-76
2022/12/04 02:20:16;;;;;;;37.47;19.73;;;;;;;-0.22;100.00;102159.63;5030014;28;20041;-76
2022/12/04 02:23:12;;;;;;;35.50;19.65;;;;;;;-0.21;100.00;102159.72;5046977;28;20056;-76
2022/12/04 02:26:18;;;;;;;32.60;18.48;;;;;;;-0.21;100.00;102167.50;5049289;28;20045;-76
2022/12/04 02:29:16;;;;;;;40.17;20.17;;;;;;;-0.18;100.00;102176.28;5020207;28;20415;-76
2022/12/04 02:32:28;;;;;;;37.92;20.70;;;;;;;-0.20;100.00;102164.09;5046982;28;20072;-76
2022/12/04 02:35:05;;;;;;;38.72;19.00;;;;;;;-0.20;100.00;102174.47;5045267;28;20053;-76
2022/12/04 02:37:37;;;;;;;35.65;19.10;;;;;;;-0.23;100.00;102163.00;5043077;28;20413;-76
2022/12/04 02:40:27;;;;;;;39.90;21.33;;;;;;;-0.29;100.00;102157.41;5045178;28;20402;-76
2022/12/04 02:43:11;;;;;;;40.38;21.85;;;;;;;-0.29;100.00;102162.59;5035297;28;20068;-75
2022/12/04 02:45:46;;;;;;;38.95;21.60;;;;;;;-0.31;100.00;102156.41;5033381;28;20053;-76
2022/12/04 02:48:19;;;;;;;42.90;22.88;;;;;;;-0.30;100.00;102155.59;5044682;28;20048;-74
2022/12/04 02:50:53;;;;;;;32.78;17.00;;;;;;;-0.32;100.00;102157.19;5039473;28;20056;-74
2022/12/04 02:53:26;;;;;;;40.83;21.08;;;;;;;-0.35;100.00;102157.88;5044634;28;20049;-74
2022/12/04 02:55:59;;;;;;;38.17;21.73;;;;;;;-0.36;100.00;102166.44;5043452;28;20411;-75
2022/12/04 02:58:31;;;;;;;37.88;19.02;;;;;;;-0.37;100.00;102161.16;5046086;28;20033;-75
2022/12/04 03:01:01;;;;;;;41.33;21.50;;;;;;;-0.38;100.00;102161.94;5014410;28;20501;-74
2022/12/04 03:03:32;;;;;;;40.60;21.33;;;;;;;-0.36;100.00;102155.19;5046829;28;20472;-75
2022/12/04 03:06:04;;;;;;;40.92;23.00;;;;;;;-0.34;100.00;102156.19;5043330;28;20040;-75
2022/12/04 03:08:38;;;;;;;40.08;21.50;;;;;;;-0.33;100.00;102169.25;5035018;28;20501;-75
2022/12/04 03:11:05;;;;;;;42.22;22.17;;;;;;;-0.35;100.00;102162.19;5039948;28;20581;-74
2022/12/04 03:13:40;;;;;;;46.83;22.83;;;;;;;-0.39;100.00;102158.47;5040772;28;20766;-75
2022/12/04 03:16:23;;;;;;;45.30;22.92;;;;;;;-0.41;100.00;102163.53;5013252;28;20079;-74
2022/12/04 03:19:03;;;;;;;44.50;23.73;;;;;;;-0.41;100.00;102163.53;5048703;28;20048;-75
2022/12/04 03:21:36;;;;;;;38.10;20.73;;;;;;;-0.40;100.00;102164.44;5038673;28;20060;-75
2022/12/04 03:24:04;;;;;;;40.83;23.58;;;;;;;-0.42;100.00;102159.16;5044193;28;20413;-75
2022/12/04 03:26:42;;;;;;;43.90;25.25;;;;;;;-0.38;100.00;102161.94;5047809;28;20045;-75
2022/12/04 03:29:17;;;;;;;42.17;22.60;;;;;;;-0.38;100.00;102164.53;5028723;28;20040;-74
2022/12/04 03:32:00;;;;;;;35.33;19.67;;;;;;;-0.38;100.00;102165.44;5014084;28;20426;-76
2022/12/04 03:34:33;;;;;;;46.00;23.83;;;;;;;-0.40;100.00;102172.19;5040355;28;20394;-75
2022/12/04 03:37:06;;;;;;;43.78;23.35;;;;;;;-0.37;100.00;102163.75;5039502;28;20037;-75
2022/12/04 03:39:45;;;;;;;46.75;24.83;;;;;;;-0.36;100.00;102160.34;5063216;28;20049;-76
2022/12/04 03:42:22;;;;;;;48.90;26.38;;;;;;;-0.36;100.00;102165.53;5042496;28;20036;-76
2022/12/04 03:45:08;;;;;;;45.42;24.35;;;;;;;-0.37;100.00;102168.94;5041990;28;20037;-75
2022/12/04 03:47:48;;;;;;;47.53;24.08;;;;;;;-0.37;100.00;102167.25;5046914;28;20060;-76
2022/12/04 03:50:25;;;;;;;50.92;24.85;;;;;;;-0.39;100.00;102166.25;5016031;28;20572;-76
2022/12/04 03:53:06;;;;;;;46.97;26.23;;;;;;;-0.38;100.00;102172.31;5039420;28;20061;-76
2022/12/04 03:55:54;;;;;;;;;;;;;;;-0.37;100.00;102174.13;5043563;28;20497;-76
2022/12/04 03:58:28;;;;;;;46.75;23.20;;;;;;;-0.44;100.00;102167.59;5044644;28;19921;-76
2022/12/04 04:00:57;;;;;;;46.90;26.10;;;;;;;-0.49;100.00;102164.72;5031788;28;20048;-75
2022/12/04 04:03:32;;;;;;;46.53;25.60;;;;;;;-0.48;100.00;102170.78;5031270;28;20037;-76
2022/12/04 04:06:05;;;;;;;47.47;24.83;;;;;;;-0.47;100.00;102160.53;5044584;28;20036;-74
2022/12/04 04:08:37;;;;;;;43.50;24.95;;;;;;;-0.42;100.00;102172.13;5040863;28;20045;-76
2022/12/04 04:11:17;;;;;;;47.72;25.58;;;;;;;-0.40;100.00;102174.78;5043924;28;20229;-75
2022/12/04 04:25:09;;;;;;;48.60;25.42;;;;;;;-0.47;100.00;102165.72;5043834;28;20044;-75
2022/12/04 04:27:36;;;;;;;45.53;25.25;;;;;;;-0.49;100.00;102161.19;5028205;28;20056;-75
2022/12/04 04:30:08;;;;;;;48.40;27.17;;;;;;;-0.49;100.00;102163.78;5041939;28;20045;-75
2022/12/04 04:32:35;;;;;;;44.08;24.98;;;;;;;-0.47;100.00;102170.00;5014234;28;20040;-75
2022/12/04 04:35:28;;;;;;;48.40;24.73;;;;;;;-0.50;100.00;102159.44;5026952;28;20064;-75
2022/12/04 04:38:07;;;;;;;46.28;26.45;;;;;;;-0.51;100.00;102152.44;5026855;28;20494;-76
2022/12/04 04:40:47;;;;;;;44.95;23.83;;;;;;;-0.52;100.00;102159.31;5044966;28;20045;-76
2022/12/04 04:43:31;;;;;;;48.95;28.30;;;;;;;-0.52;100.00;102161.91;5042944;28;20041;-76
2022/12/04 04:46:07;;;;;;;45.92;24.15;;;;;;;-0.52;100.00;102158.41;5026274;28;20056;-75
2022/12/04 04:48:41;;;;;;;52.10;25.63;;;;;;;-0.54;100.00;102160.00;5015524;28;20048;-76
2022/12/04 04:51:10;;;;;;;48.10;24.45;;;;;;;-0.54;100.00;102162.59;5042243;28;20049;-75
2022/12/04 04:53:47;;;;;;;43.53;25.30;;;;;;;-0.54;100.00;102166.06;5037949;28;20044;-76
2022/12/04 04:56:15;;;;;;;46.90;25.60;;;;;;;-0.54;100.00;102175.53;5042449;28;20052;-75
2022/12/04 04:58:43;;;;;;;43.22;24.40;;;;;;;-0.54;100.00;102173.84;5060954;28;20033;-76
2022/12/04 05:01:13;;;;;;;46.97;24.92;;;;;;;-0.54;100.00;102170.38;5031120;28;20037;-75
2022/12/04 05:03:41;;;;;;;44.63;26.40;;;;;;;-0.54;100.00;102176.44;4991890;28;20045;-75
2022/12/04 05:06:09;;;;;;;43.05;24.50;;;;;;;-0.56;100.00;102175.44;5028376;28;20234;-76
2022/12/04 05:08:36;;;;;;;45.05;23.63;;;;;;;-0.54;100.00;102168.66;5028979;28;20524;-75
2022/12/04 05:11:04;;;;;;;45.88;25.27;;;;;;;-0.51;100.00;102173.16;5042800;28;20052;-75
2022/12/04 05:13:31;;;;;;;47.42;26.33;;;;;;;-0.49;100.00;102179.31;5042052;28;20053;-76
2022/12/04 05:16:04;;;;;;;45.60;25.90;;;;;;;-0.51;100.00;102175.75;5044523;28;20041;-76
2022/12/04 05:18:33;;;;;;;46.58;27.02;;;;;;;-0.48;100.00;102174.25;5015553;28;20060;-75
2022/12/04 05:21:14;;;;;;;51.10;26.00;;;;;;;-0.46;100.00;102177.84;5033854;28;20048;-75
2022/12/04 05:23:42;;;;;;;47.63;25.90;;;;;;;-0.47;100.00;102178.66;5013498;28;20057;-75
2022/12/04 05:26:10;;;;;;;47.15;26.17;;;;;;;-0.45;100.00;102179.66;5043857;28;20052;-75
2022/12/04 05:28:39;;;;;;;48.17;25.20;;;;;;;-0.43;100.00;102179.78;5044859;28;20056;-75
2022/12/04 05:31:07;;;;;;;54.92;27.38;;;;;;;-0.43;100.00;102179.78;5043437;28;20389;-75
2022/12/04 05:33:34;;;;;;;49.53;26.73;;;;;;;-0.41;100.00;102184.25;5045543;28;20048;-75
2022/12/04 05:36:05;;;;;;;48.78;26.10;;;;;;;-0.37;100.00;102187.06;4996224;28;20045;-75
2022/12/04 05:38:35;;;;;;;51.13;26.80;;;;;;;-0.36;100.00;102181.97;5041841;28;20049;-75
2022/12/04 05:41:04;;;;;;;46.47;26.77;;;;;;;-0.36;100.00;102181.09;5034427;28;20045;-75
2022/12/04 05:43:33;;;;;;;47.70;26.48;;;;;;;-0.35;100.00;102183.78;5046016;28;20422;-75
2022/12/04 05:46:05;;;;;;;47.00;26.40;;;;;;;-0.32;100.00;102190.84;5043180;28;20060;-75
2022/12/04 05:48:34;;;;;;;47.15;26.10;;;;;;;-0.33;100.00;102186.47;5046110;28;20052;-75
2022/12/04 05:51:08;;;;;;;47.78;26.70;;;;;;;-0.32;100.00;102190.84;5013806;28;20037;-75
2022/12/04 05:53:37;;;;;;;45.53;25.75;;;;;;;-0.31;100.00;102184.91;5007241;28;20049;-75
2022/12/04 05:56:06;;;;;;;46.33;25.23;;;;;;;-0.31;100.00;102192.66;5038101;28;20095;-75
2022/12/04 05:58:37;;;;;;;45.85;25.83;;;;;;;-0.32;100.00;102188.25;5036706;28;20760;-75
2022/12/04 06:01:11;;;;;;;46.05;25.30;;;;;;;-0.31;100.00;102192.66;5030137;28;20048;-75
2022/12/04 06:03:38;;;;;;;45.13;24.08;;;;;;;-0.31;100.00;102187.50;5045238;28;20520;-75
2022/12/04 06:06:20;;;;;;;46.38;27.40;;;;;;;-0.33;100.00;102187.38;5007927;28;20047;-75
2022/12/04 06:08:50;;;;;;;52.00;27.58;;;;;;;-0.34;100.00;102176.91;5038720;28;20413;-75
2022/12/04 06:11:21;;;;;;;47.88;26.48;;;;;;;-0.35;100.00;102169.94;5034397;28;21359;-75
2022/12/04 06:13:48;;;;;;;50.58;27.77;;;;;;;-0.37;100.00;102171.53;5050101;28;20045;-75
2022/12/04 06:16:32;;;;;;;52.08;28.15;;;;;;;-0.37;100.00;102176.72;5046858;28;20056;-75
2022/12/04 06:19:04;;;;;;;50.70;26.50;;;;;;;-0.36;100.00;102168.13;5042870;28;20040;-75
2022/12/04 06:21:34;;;;;;;50.70;26.38;;;;;;;-0.36;100.00;102175.91;5022582;28;20055;-75
2022/12/04 06:24:02;;;;;;;47.45;26.60;;;;;;;-0.38;100.00;102178.38;5041592;28;20041;-74
2022/12/04 06:26:30;;;;;;;49.15;26.55;;;;;;;-0.38;100.00;102182.66;5039790;28;20045;-75
2022/12/04 06:28:58;;;;;;;48.75;26.35;;;;;;;-0.40;100.00;102183.47;5046943;28;20056;-75
2022/12/04 06:31:28;;;;;;;47.83;24.10;;;;;;;-0.39;100.00;102176.59;5044362;28;20368;-75
2022/12/04 06:33:57;;;;;;;48.13;26.95;;;;;;;-0.39;100.00;102184.38;5047623;28;20041;-75
2022/12/04 06:36:24;;;;;;;48.97;25.55;;;;;;;-0.36;100.00;102187.16;5042903;28;20061;-75
2022/12/04 06:38:54;;;;;;;49.05;26.15;;;;;;;-0.35;100.00;102188.06;5020482;28;20045;-74
2022/12/04 06:41:24;;;;;;;45.22;25.55;;;;;;;-0.35;100.00;102188.97;5040544;28;20465;-74
2022/12/04 06:43:51;;;;;;;48.05;25.85;;;;;;;-0.34;100.00;102190.78;5037212;28;20045;-74
2022/12/04 06:46:25;;;;;;;53.17;27.50;;;;;;;-0.32;100.00;102188.25;5044512;28;20053;-75
2022/12/04 06:48:54;;;;;;;50.42;26.52;;;;;;;-0.31;100.00;102190.06;5061377;28;20410;-75
2022/12/04 06:51:27;;;;;;;44.58;24.75;;;;;;;-0.30;100.00;102192.78;5028379;28;20041;-75
2022/12/04 06:53:55;;;;;;;48.58;24.25;;;;;;;-0.31;100.00;102193.56;5019145;28;20048;-74
2022/12/04 06:56:25;;;;;;;47.20;22.60;;;;;;;-0.29;100.00;102188.50;5042129;28;20414;-75
2022/12/04 06:58:55;;;;;;;48.75;25.17;;;;;;;-0.29;100.00;102188.50;5040308;28;20040;-75
2022/12/04 07:01:25;;;;;;;50.35;27.05;;;;;;;-0.28;100.00;102190.31;5045793;28;20402;-75
2022/12/04 07:03:53;;;;;;;54.95;27.95;;;;;;;-0.28;100.00;102190.31;5048114;28;20036;-75
2022/12/04 07:06:24;;;;;;;48.85;26.15;;;;;;;-0.29;100.00;102194.56;5045853;28;20041;-75
2022/12/04 07:08:52;;;;;;;;;;;;;;;-0.29;100.00;102188.50;5022059;28;20417;-75
2022/12/04 07:11:21;;;;;;;43.05;23.63;;;;;;;-0.28;100.00;102191.19;5039752;28;19921;-75
2022/12/04 07:13:49;;;;;;;51.95;27.45;;;;;;;-0.24;100.00;102189.72;5037321;28;20041;-75
2022/12/04 07:16:20;;;;;;;46.97;25.23;;;;;;;-0.22;100.00;102191.59;5046438;28;20037;-75
2022/12/04 07:18:55;;;;;;;46.03;26.20;;;;;;;-0.21;100.00;102188.22;5049050;28;20041;-75
2022/12/04 07:21:25;;;;;;;48.97;25.83;;;;;;;-0.19;100.00;102185.72;5047726;28;20036;-75
2022/12/04 07:23:55;;;;;;;49.03;24.83;;;;;;;-0.16;100.00;102180.75;5018017;28;20037;-75
2022/12/04 07:26:24;;;;;;;41.97;23.70;;;;;;;-0.14;100.00;102183.47;5039821;28;20049;-75
2022/12/04 07:28:52;;;;;;;47.80;26.13;;;;;;;-0.17;100.00;102178.97;5037425;28;20052;-75
2022/12/04 07:31:22;;;;;;;43.53;23.80;;;;;;;-0.15;100.00;102182.56;5044955;28;20044;-75
2022/12/04 07:33:50;;;;;;;45.60;24.42;;;;;;;-0.14;100.00;102184.34;5047049;28;20048;-75
2022/12/04 07:36:18;;;;;;;44.17;26.15;;;;;;;-0.14;100.00;102181.75;5045432;28;20037;-75
2022/12/04 07:38:46;;;;;;;43.15;23.92;;;;;;;-0.13;100.00;102187.81;5021879;28;20049;-75
2022/12/04 07:41:15;;;;;;;48.83;24.73;;;;;;;-0.11;100.00;102201.81;5052565;28;20037;-75
2022/12/04 07:43:42;;;;;;;43.42;23.75;;;;;;;-0.11;100.00;102196.63;5047370;28;20441;-75
2022/12/04 07:46:21;;;;;;;47.15;24.75;;;;;;;-0.09;100.00;102201.13;5037917;28;20045;-75
2022/12/04 07:48:48;;;;;;;41.03;23.77;;;;;;;-0.06;100.00;102196.16;5047324;28;20053;-75
2022/12/04 07:51:21;;;;;;;43.20;24.63;;;;;;;-0.04;100.00;102199.75;5045653;28;20041;-75
2022/12/04 07:53:50;;;;;;;44.10;24.25;;;;;;;-0.01;100.00;102202.53;5046957;28;20048;-75
2022/12/04 07:56:18;;;;;;;46.40;25.42;;;;;;;0.01;100.00;102201.75;5015930;28;20052;-75
2022/12/04 07:58:46;;;;;;;40.00;22.75;;;;;;;0.01;100.00;102189.69;5048402;28;20048;-75
2022/12/04 08:01:16;;;;;;;45.78;23.73;;;;;;;0.03;100.00;102198.44;5036700;28;20486;-75
2022/12/04 08:03:45;;;;;;;39.90;21.13;;;;;;;0.04;100.00;102200.25;5061269;28;20057;-75
2022/12/04 08:06:20;;;;;;;39.67;22.27;;;;;;;0.06;100.00;102192.56;5044016;28;20217;-75
2022/12/04 08:08:49;;;;;;;40.42;23.45;;;;;;;0.06;100.00;102201.25;5046409;28;20056;-75
2022/12/04 08:11:22;;;;;;;37.70;22.17;;;;;;;0.07;100.00;102200.44;4989547;28;24647;-75
2022/12/04 08:14:01;;;;;;;42.63;23.75;;;;;;;0.07;100.00;102195.25;5046149;28;20057;-75
2022/12/04 08:16:31;;;;;;;41.65;22.80;;;;;;;0.10;100.00;102205.84;5037360;28;20059;-75
2022/12/04 08:18:59;;;;;;;38.17;21.42;;;;;;;0.13;100.00;102199.97;5045161;28;20437;-76
2022/12/04 08:21:28;;;;;;;39.70;23.58;;;;;;;0.14;100.00;102202.66;5044695;28;20044;-76
2022/12/04 08:23:57;;;;;;;39.95;22.38;;;;;;;0.18;100.00;102202.06;5042159;28;20413;-76
2022/12/04 08:26:27;;;;;;;41.70;22.55;;;;;;;0.20;100.00;102209.94;5014378;28;20040;-76
2022/12/04 08:28:56;;;;;;;38.45;21.63;;;;;;;0.25;100.00;102221.53;5045569;28;20493;-76
2022/12/04 08:31:26;;;;;;;39.03;21.75;;;;;;;0.28;100.00;102234.69;5036970;28;20041;-75
2022/12/04 08:33:57;;;;;;;33.22;18.58;;;;;;;0.32;100.00;102218.56;5043862;28;20390;-76
2022/12/04 08:36:25;;;;;;;43.08;23.33;;;;;;;0.35;100.00;102216.16;5043694;28;20037;-76
2022/12/04 08:38:52;;;;;;;42.58;22.52;;;;;;;0.37;100.00;102209.38;5045212;28;20053;-75
2022/12/04 08:41:22;;;;;;;39.60;22.25;;;;;;;0.43;100.00;102215.78;5044277;28;20048;-75
2022/12/04 08:43:55;;;;;;;40.15;22.67;;;;;;;0.46;100.00;102210.81;5009442;28;20044;-75
2022/12/04 08:46:26;;;;;;;41.17;22.27;;;;;;;0.49;100.00;102216.16;5036222;28;20049;-74
2022/12/04 08:48:54;;;;;;;36.45;21.63;;;;;;;0.50;100.00;102212.78;5030857;28;20037;-75
2022/12/04 08:51:24;;;;;;;36.42;20.85;;;;;;;0.54;100.00;102205.31;5016612;28;20037;-75
2022/12/04 08:53:57;;;;;;;33.90;20.52;;;;;;;0.57;100.00;102210.69;5043441;28;20044;-75
2022/12/04 08:56:26;;;;;;;35.55;21.55;;;;;;;0.62;100.00;102208.38;5045517;28;20045;-75
2022/12/04 08:58:55;;;;;;;37.88;21.23;;;;;;;0.66;100.00;102206.91;5009262;28;20056;-75
2022/12/04 09:01:24;;;;;;;32.25;19.50;;;;;;;0.70;100.00;102204.63;5038380;28;20037;-75
2022/12/04 09:03:52;;;;;;;36.90;20.73;;;;;;;0.75;100.00;102207.50;5025879;28;20048;-75
2022/12/04 09:06:20;;;;;;;33.15;19.75;;;;;;;0.78;100.00;102208.59;5039984;28;20056;-74
2022/12/04 09:08:52;;;;;;;35.90;20.33;;;;;;;0.84;100.00;102210.69;5028563;28;20045;-75
2022/12/04 09:11:22;;;;;;;31.85;19.02;;;;;;;0.89;100.00;102201.50;5041571;28;20045;-75
2022/12/04 09:13:51;;;;;;;31.48;18.63;;;;;;;0.94;100.00;102202.69;5011952;28;20064;-76
2022/12/04 09:16:20;;;;;;;25.73;15.98;;;;;;;1.00;100.00;102201.28;5026339;28;20048;-75
2022/12/04 09:18:49;;;;;;;28.17;16.13;;;;;;;1.06;100.00;102209.47;5050353;28;20051;-75
2022/12/04 09:21:19;;;;;;;28.08;16.88;;;;;;;1.12;100.00;102220.25;5027544;28;20049;-74
2022/12/04 09:23:47;;;;;;;29.30;18.25;;;;;;;1.15;100.00;102217.84;5025311;28;20037;-74
2022/12/04 09:26:27;;;;;;;30.70;17.92;;;;;;;1.16;100.00;102220.53;5022942;28;20049;-74
2022/12/04 09:28:56;;;;;;;34.57;19.70;;;;;;;1.15;100.00;102223.94;5040406;28;20045;-76
2022/12/04 09:31:24;;;;;;;35.22;19.48;;;;;;;1.13;100.00;102225.53;4997214;28;20044;-76
2022/12/04 09:33:52;;;;;;;36.05;20.52;;;;;;;1.12;100.00;102222.84;5008956;28;20533;-74
2022/12/04 09:36:20;;;;;;;33.30;19.38;;;;;;;1.11;100.00;102221.94;5033743;28;20049;-75
2022/12/04 09:38:49;;;;;;;35.67;19.35;;;;;;;1.09;100.00;102223.53;5030096;28;20080;-75
2022/12/04 09:41:35;;;;;;;34.45;19.58;;;;;;;1.06;100.00;102233.75;5043164;28;20033;-75
2022/12/04 09:44:26;;;;;;;33.67;20.25;;;;;;;1.06;100.00;102236.34;5045602;28;20489;-75
2022/12/04 09:47:01;;;;;;;31.88;18.92;;;;;;;1.05;100.00;102224.16;5011431;28;20080;-74
2022/12/04 09:49:52;;;;;;;33.25;18.88;;;;;;;1.06;100.00;102217.25;5042342;28;20053;-75
2022/12/04 09:52:45;;;;;;;28.98;17.85;;;;;;;1.06;100.00;102222.44;5032866;28;20049;-75
2022/12/04 09:55:21;;;;;;;28.98;17.00;;;;;;;1.08;100.00;102221.75;5034001;28;20041;-75
2022/12/04 09:57:51;;;;;;;29.50;18.17;;;;;;;1.11;100.00;102214.13;5044305;28;20056;-75
2022/12/04 10:00:28;;;;;;;29.55;16.20;;;;;;;1.12;100.00;102220.25;5044453;28;20052;-75
2022/12/04 10:03:06;;;;;;;28.38;17.58;;;;;;;1.16;100.00;102224.84;5012750;28;20044;-75
2022/12/04 10:05:42;;;;;;;27.25;17.00;;;;;;;1.18;100.00;102218.03;5037793;28;20284;-75
2022/12/04 10:08:30;;;;;;;26.40;16.65;;;;;;;1.23;100.00;102221.84;5013562;28;20053;-75
2022/12/04 10:11:06;;;;;;;27.02;15.82;;;;;;;1.26;100.00;102227.19;5014053;28;20053;-75
2022/12/04 10:14:01;;;;;;;25.88;15.70;;;;;;;1.29;100.00;102219.63;5040579;28;20056;-75
2022/12/04 10:16:50;;;;;;;25.83;15.82;;;;;;;1.35;100.00;102216.50;5022965;28;20049;-75
2022/12/04 10:19:17;;;;;;;22.23;14.15;;;;;;;1.37;100.00;102225.28;5023226;28;20056;-76
2022/12/04 10:22:18;;;;;;;20.30;12.82;;;;;;;1.41;100.00;102208.19;5020813;28;20037;-74
2022/12/04 10:24:48;;;;;;;;;;;;;;;1.45;100.00;102212.78;5019813;28;20061;-72
2022/12/04 10:27:52;;;;;;;21.77;13.60;;;;;;;1.47;100.00;102222.44;5041923;28;20250;-76
2022/12/04 10:30:25;;;;;;;22.33;14.38;;;;;;;1.49;100.00;102219.94;5027814;28;20053;-76
2022/12/04 10:33:02;;;;;;;23.98;14.27;;;;;;;1.53;100.00;102202.06;4991082;28;20053;-76
2022/12/04 10:35:31;;;;;;;24.10;14.32;;;;;;;1.54;100.00;102214.25;5043216;28;20061;-77
2022/12/04 10:38:40;;;;;;;19.75;13.13;;;;;;;1.57;100.00;102218.75;5013395;28;20068;-76
2022/12/04 10:41:23;;;;;;;20.10;12.90;;;;;;;1.58;100.00;102219.63;4997191;28;20129;-77
2022/12/04 10:43:50;;;;;;;24.80;12.60;;;;;;;1.58;100.00;102209.25;5018109;28;20057;-74
2022/12/04 10:46:26;;;;;;;22.77;14.02;;;;;;;1.61;100.00;102214.59;5018352;28;20054;-80
2022/12/04 10:48:58;;;;;;;22.67;14.50;;;;;;;1.62;100.00;102216.41;5005500;28;20513;-78
2022/12/04 10:51:27;;;;;;;22.08;13.52;;;;;;;1.66;100.00;102214.09;5031874;28;20044;-77
2022/12/04 10:53:55;;;;;;;23.60;15.23;;;;;;;1.70;100.00;102216.09;5034030;28;20045;-78
2022/12/04 10:56:24;;;;;;;22.15;14.13;;;;;;;1.72;100.00;102204.09;4997921;28;20041;-77
2022/12/04 10:58:58;;;;;;;26.08;14.63;;;;;;;1.74;100.00;102206.78;5023974;28;20065;-79
2022/12/04 11:01:28;;;;;;;23.48;14.57;;;;;;;1.74;100.00;102210.28;5026791;28;20076;-78
2022/12/04 11:04:08;;;;;;;25.30;15.48;;;;;;;1.74;100.00;102196.38;5002528;28;20042;-75
2022/12/04 11:06:35;;;;;;;27.77;15.27;;;;;;;1.73;100.00;102195.47;5004671;28;20498;-75
2022/12/04 11:09:03;;;;;;;24.88;14.98;;;;;;;1.71;100.00;102188.41;5009216;28;20048;-76
2022/12/04 11:11:34;;;;;;;28.17;15.23;;;;;;;1.69;100.00;102190.91;5004059;28;20042;-75
2022/12/04 11:14:15;;;;;;;23.25;15.00;;;;;;;1.69;100.00;102197.81;5003516;28;20038;-75
2022/12/04 11:16:47;;;;;;;24.17;16.25;;;;;;;1.68;100.00;102196.00;5008647;28;20052;-75
2022/12/04 11:19:26;;;;;;;23.23;15.10;;;;;;;1.66;100.00;102189.81;4993051;28;20116;-75
2022/12/04 11:21:59;;;;;;;25.92;16.08;;;;;;;1.68;100.00;102188.19;5015919;28;20049;-75
2022/12/04 11:24:42;;;;;;;26.50;15.07;;;;;;;1.71;100.00;102191.00;5011796;28;20061;-74
2022/12/04 11:27:34;;;;;;;25.42;15.57;;;;;;;1.69;100.00;102187.41;5007609;28;20061;-75
2022/12/04 11:30:13;;;;;;;25.38;15.68;;;;;;;1.71;100.00;102176.28;5005437;28;20046;-75
2022/12/04 11:32:42;;;;;;;25.60;16.08;;;;;;;1.71;100.00;102175.41;5024817;28;20050;-75
2022/12/04 11:35:16;;;;;;;23.17;14.68;;;;;;;1.72;100.00;102169.38;5006864;28;20042;-75
2022/12/04 11:37:56;;;;;;;27.00;15.80;;;;;;;1.71;100.00;102170.22;5022517;28;20056;-75
2022/12/04 11:40:25;;;;;;;23.98;14.40;;;;;;;1.72;100.00;102170.31;5029148;28;20049;-74
2022/12/04 11:43:00;;;;;;;26.75;14.95;;;;;;;1.73;100.00;102179.00;4998065;28;20054;-77
2022/12/04 11:45:28;;;;;;;23.10;14.23;;;;;;;1.74;100.00;102181.69;5023378;28;20482;-76